Time;durP1;ratioP1;P1;durP2;ratioP2;P2;SDS_P1;SDS_P2;PMS_P1;PMS_P2;Temp;Humidity;BMP_temperature;BMP_pressure;BME280_temperature;BME280_humidity;BME280_pressure;Samples;Min_cycle;Max_cycle;Signal;HPM_P1;HPM_P2
2022/10/19 00:00:12;;;;;;;;;;;10.80;99.90;;;;;;5054107;28;19924;-84
2022/10/19 00:02:38;;;;;;;;;;;10.80;99.90;;;;;;5072175;28;19909;-85
2022/10/19 00:05:04;;;;;;;;;;;10.80;99.90;;;;;;5053887;28;19967;-85
2022/10/19 00:07:29;;;;;;;;;;;10.70;99.90;;;;;;5072083;28;20390;-84
2022/10/19 00:09:54;;;;;;;;;;;10.70;99.90;;;;;;5054075;28;19951;-84
2022/10/19 00:12:20;;;;;;;;;;;10.70;99.90;;;;;;5056759;28;19909;-85
2022/10/19 00:14:45;;;;;;;;;;;10.70;99.90;;;;;;5057812;28;19909;-85
2022/10/19 00:17:11;;;;;;;;;;;10.60;99.90;;;;;;5076020;28;20297;-85
2022/10/19 00:19:36;;;;;;;;;;;10.60;99.90;;;;;;5075810;28;19999;-85
2022/10/19 00:22:02;;;;;;;;;;;10.60;99.90;;;;;;5075873;28;20007;-85
2022/10/19 00:24:27;;;;;;;;;;;10.60;99.90;;;;;;5057583;28;19929;-85
2022/10/19 00:26:53;;;;;;;;;;;10.60;99.90;;;;;;5057973;28;20320;-85
2022/10/19 00:29:18;;;;;;;;;;;10.60;99.90;;;;;;5057706;28;19909;-85
2022/10/19 00:31:44;;;;;;;;;;;10.60;99.90;;;;;;5057791;28;20381;-84
2022/10/19 00:34:09;;;;;;;;;;;10.60;99.90;;;;;;5057506;28;19951;-85
2022/10/19 00:36:37;;;;;;;;;;;10.50;99.90;;;;;;5057697;28;20397;-86
2022/10/19 00:39:03;;;;;;;;;;;10.50;99.90;;;;;;5057493;28;19947;-86
2022/10/19 00:41:30;;;;;;;;;;;10.50;99.90;;;;;;5057363;28;19909;-85
2022/10/19 00:43:56;;;;;;;;;;;10.50;99.90;;;;;;5057090;28;19916;-85
2022/10/19 00:46:22;;;;;;;;;;;10.50;99.90;;;;;;5075479;28;20007;-85
2022/10/19 00:48:49;;;;;;;;;;;10.40;99.90;;;;;;5075443;28;20290;-85
2022/10/19 00:51:14;;;;;;;;;;;10.40;99.90;;;;;;5057242;28;19909;-85
2022/10/19 00:53:40;;;;;;;;;;;10.40;99.90;;;;;;5057050;28;19915;-85
2022/10/19 00:56:10;;;;;;;;;;;10.40;99.90;;;;;;5057242;28;19915;-85
2022/10/19 00:58:36;;;;;;;;;;;10.40;99.90;;;;;;5057326;28;20460;-85
2022/10/19 01:01:03;;;;;;;;;;;10.40;99.90;;;;;;5056918;28;20022;-85
2022/10/19 01:03:29;;;;;;;;;;;10.30;99.90;;;;;;5056895;28;19908;-85
2022/10/19 01:05:54;;;;;;;;;;;10.30;99.90;;;;;;5075107;28;20328;-85
2022/10/19 01:08:20;;;;;;;;;;;10.30;99.90;;;;;;5057006;28;20302;-85
2022/10/19 01:11:00;;;;;;;;;;;10.30;99.90;;;;;;5074870;28;19963;-85
2022/10/19 01:13:35;;;;;;;;;;;10.30;99.90;;;;;;5074752;28;20398;-86
2022/10/19 01:16:08;;;;;;;;;;;10.30;99.90;;;;;;5057010;28;20000;-86
2022/10/19 01:18:38;;;;;;;;;;;10.30;99.90;;;;;;5056989;28;19958;-86
2022/10/19 01:21:09;;;;;;;;;;;10.20;99.90;;;;;;5056874;28;19909;-86
2022/10/19 01:23:53;;;;;;;;;;;10.20;99.90;;;;;;5055266;28;19960;-86
2022/10/19 01:26:43;;;;;;;;;;;10.20;99.90;;;;;;5056569;28;19912;-86
2022/10/19 01:29:17;;;;;;;;;;;10.20;99.90;;;;;;5056682;28;19999;-87
2022/10/19 01:31:50;;;;;;;;;;;10.20;99.90;;;;;;5056564;28;19908;-87
2022/10/19 01:34:42;;;;;;;;;;;10.10;99.90;;;;;;5056330;28;19998;-85
2022/10/19 01:37:14;;;;;;;;;;;10.10;99.90;;;;;;5026144;28;19909;-86
2022/10/19 01:39:46;;;;;;;;;;;10.10;99.90;;;;;;5056351;28;19909;-86
2022/10/19 01:42:13;;;;;;;;;;;10.00;99.90;;;;;;5056270;28;19962;-86
2022/10/19 01:44:42;;;;;;;;;;;10.00;99.90;;;;;;5056185;28;20361;-86
2022/10/19 01:47:17;;;;;;;;;;;9.90;99.90;;;;;;5056381;28;19917;-86
2022/10/19 01:49:52;;;;;;;;;;;9.90;99.90;;;;;;5056216;28;19909;-85
2022/10/19 01:52:19;;;;;;;;;;;9.90;99.90;;;;;;5056465;28;19962;-86
2022/10/19 01:54:48;;;;;;;;;;;9.90;99.90;;;;;;5055929;28;19974;-85
2022/10/19 01:57:16;;;;;;;;;;;9.90;99.90;;;;;;5056061;28;20267;-86
2022/10/19 01:59:42;;;;;;;;;;;9.80;99.90;;;;;;5056254;28;19919;-85
2022/10/19 02:02:09;;;;;;;;;;;9.80;99.90;;;;;;5055939;28;19999;-85
2022/10/19 02:04:35;;;;;;;;;;;9.80;99.90;;;;;;5055726;28;20364;-85
2022/10/19 02:07:01;;;;;;;;;;;9.80;99.90;;;;;;5073914;28;20386;-85
2022/10/19 02:09:27;;;;;;;;;;;9.80;99.90;;;;;;5055815;28;20003;-86
2022/10/19 02:11:55;;;;;;;;;;;9.70;99.90;;;;;;5073758;28;19908;-84
2022/10/19 02:14:23;;;;;;;;;;;9.70;99.90;;;;;;5055572;28;20397;-86
2022/10/19 02:16:51;;;;;;;;;;;9.70;99.90;;;;;;5055798;28;19944;-85
2022/10/19 02:19:18;;;;;;;;;;;9.70;99.90;;;;;;5055588;28;20436;-85
2022/10/19 02:21:44;;;;;;;;;;;9.70;99.90;;;;;;5073542;28;19933;-85
2022/10/19 02:24:09;;;;;;;;;;;9.70;99.90;;;;;;5073162;28;19920;-85
2022/10/19 02:26:35;;;;;;;;;;;9.70;99.90;;;;;;5055501;28;19916;-85
2022/10/19 02:29:01;;;;;;;;;;;9.60;99.90;;;;;;5073352;28;20484;-85
2022/10/19 02:31:26;;;;;;;;;;;9.60;99.90;;;;;;5055359;28;20378;-85
2022/10/19 02:33:52;;;;;;;;;;;9.60;99.90;;;;;;5072717;28;19955;-85
2022/10/19 02:36:18;;;;;;;;;;;9.60;99.90;;;;;;5055285;28;19908;-85
2022/10/19 02:38:43;;;;;;;;;;;9.50;99.90;;;;;;5055385;28;19915;-85
2022/10/19 02:41:27;;;;;;;;;;;9.50;99.90;;;;;;5073094;28;19931;-85
2022/10/19 02:43:56;;;;;;;;;;;9.50;99.90;;;;;;5072830;28;20359;-85
2022/10/19 02:46:27;;;;;;;;;;;9.50;99.90;;;;;;5073113;28;19920;-85
2022/10/19 02:48:53;;;;;;;;;;;9.50;99.90;;;;;;5055421;28;20409;-85
2022/10/19 02:51:38;;;;;;;;;;;9.50;99.90;;;;;;5072974;28;19908;-85
2022/10/19 02:54:05;;;;;;;;;;;9.50;99.90;;;;;;5054669;28;20320;-85
2022/10/19 02:56:30;;;;;;;;;;;9.50;99.90;;;;;;5054945;28;19915;-85
2022/10/19 02:58:56;;;;;;;;;;;9.50;99.90;;;;;;5072859;28;20370;-85
2022/10/19 03:01:21;;;;;;;;;;;9.50;99.90;;;;;;5054030;28;19955;-85
2022/10/19 03:03:47;;;;;;;;;;;9.50;99.90;;;;;;5071770;28;19909;-85
2022/10/19 03:06:12;;;;;;;;;;;9.50;99.90;;;;;;5054051;28;19908;-85
2022/10/19 03:08:38;;;;;;;;;;;9.50;99.90;;;;;;5054005;28;19989;-85
2022/10/19 03:11:03;;;;;;;;;;;9.50;99.90;;;;;;5053929;28;19919;-85
2022/10/19 03:13:29;;;;;;;;;;;9.40;99.90;;;;;;5071601;28;19955;-85
2022/10/19 03:15:54;;;;;;;;;;;9.40;99.90;;;;;;5053960;28;19908;-84
2022/10/19 03:18:19;;;;;;;;;;;9.40;99.90;;;;;;5053870;28;19909;-85
2022/10/19 03:20:45;;;;;;;;;;;9.40;99.90;;;;;;5053766;28;19916;-85
2022/10/19 03:23:13;;;;;;;;;;;9.30;99.90;;;;;;5071544;28;20386;-85
2022/10/19 03:25:39;;;;;;;;;;;9.30;99.90;;;;;;5071641;28;20332;-85
2022/10/19 03:28:04;;;;;;;;;;;9.20;99.90;;;;;;5071752;28;19912;-85
2022/10/19 03:30:30;;;;;;;;;;;9.20;99.90;;;;;;5071676;28;20350;-85
2022/10/19 03:32:55;;;;;;;;;;;9.20;99.90;;;;;;5053492;28;19908;-85
2022/10/19 03:35:20;;;;;;;;;;;9.20;99.90;;;;;;5071763;28;20281;-85
2022/10/19 03:37:46;;;;;;;;;;;9.20;99.90;;;;;;5053620;28;19963;-84
2022/10/19 03:40:11;;;;;;;;;;;9.20;99.90;;;;;;5071452;28;19974;-85
2022/10/19 03:42:37;;;;;;;;;;;9.20;99.90;;;;;;5053542;28;19909;-85
2022/10/19 03:45:02;;;;;;;;;;;9.20;99.90;;;;;;5053243;28;19967;-84
2022/10/19 03:47:28;;;;;;;;;;;9.20;99.90;;;;;;5056097;28;20259;-85
2022/10/19 03:49:53;;;;;;;;;;;9.10;99.90;;;;;;5075097;28;19915;-85
2022/10/19 03:52:19;;;;;;;;;;;9.10;99.90;;;;;;5056971;28;20387;-84
2022/10/19 03:54:48;;;;;;;;;;;9.10;99.90;;;;;;5056764;28;19916;-85
2022/10/19 03:57:13;;;;;;;;;;;9.10;99.90;;;;;;5057100;28;19909;-85
2022/10/19 03:59:39;;;;;;;;;;;9.10;99.90;;;;;;5041227;28;832830;-85
2022/10/19 04:02:04;;;;;;;;;;;9.10;99.90;;;;;;5045498;28;19944;-85
2022/10/19 04:04:29;;;;;;;;;;;9.00;99.90;;;;;;5057891;28;19912;-85
2022/10/19 04:06:55;;;;;;;;;;;9.00;99.90;;;;;;5058152;28;19909;-85
2022/10/19 04:09:21;;;;;;;;;;;9.00;99.90;;;;;;5057996;28;20007;-85
2022/10/19 04:11:47;;;;;;;;;;;8.90;99.90;;;;;;5076072;28;20324;-84
2022/10/19 04:14:13;;;;;;;;;;;8.90;99.90;;;;;;5057839;28;20370;-85
2022/10/19 04:16:39;;;;;;;;;;;8.90;99.90;;;;;;5057990;28;20283;-85
2022/10/19 04:19:04;;;;;;;;;;;8.80;99.90;;;;;;5075855;28;19909;-85
2022/10/19 04:21:31;;;;;;;;;;;8.80;99.90;;;;;;5057891;28;19909;-84
2022/10/19 04:24:04;;;;;;;;;;;8.80;99.90;;;;;;5075497;28;19912;-85
2022/10/19 04:26:30;;;;;;;;;;;8.70;99.90;;;;;;5058109;28;20434;-84
2022/10/19 04:28:56;;;;;;;;;;;8.70;99.90;;;;;;5075747;28;19944;-84
2022/10/19 04:31:21;;;;;;;;;;;8.80;99.90;;;;;;5075547;28;19912;-84
2022/10/19 04:33:47;;;;;;;;;;;8.70;99.90;;;;;;5057374;28;19916;-84
2022/10/19 04:36:12;;;;;;;;;;;8.70;99.90;;;;;;5075632;28;19912;-85
2022/10/19 04:38:38;;;;;;;;;;;8.70;99.90;;;;;;5057555;28;20330;-84
2022/10/19 04:41:04;;;;;;;;;;;8.70;99.90;;;;;;5075396;28;20005;-85
2022/10/19 04:43:30;;;;;;;;;;;8.60;99.90;;;;;;5057192;28;19908;-84
2022/10/19 04:45:56;;;;;;;;;;;8.60;99.90;;;;;;5057426;28;19919;-85
2022/10/19 04:48:21;;;;;;;;;;;8.60;99.90;;;;;;5057376;28;19939;-84
2022/10/19 04:50:47;;;;;;;;;;;8.60;99.90;;;;;;5075238;28;19909;-85
2022/10/19 04:53:12;;;;;;;;;;;8.60;99.90;;;;;;5057022;28;19988;-84
2022/10/19 04:55:41;;;;;;;;;;;8.60;99.90;;;;;;5075194;28;19908;-85
2022/10/19 04:58:06;;;;;;;;;;;8.50;99.90;;;;;;5056985;28;19908;-85
2022/10/19 05:00:32;;;;;;;;;;;8.50;99.90;;;;;;5056991;28;20016;-84
2022/10/19 05:02:57;;;;;;;;;;;8.50;99.90;;;;;;5074926;28;19909;-84
2022/10/19 05:05:24;;;;;;;;;;;8.50;99.90;;;;;;5075032;28;19916;-85
2022/10/19 05:07:49;;;;;;;;;;;8.50;99.90;;;;;;5075022;28;19920;-85
2022/10/19 05:10:15;;;;;;;;;;;8.50;99.90;;;;;;5057041;28;19930;-84
2022/10/19 05:12:40;;;;;;;;;;;8.50;99.90;;;;;;5056967;28;20255;-84
2022/10/19 05:15:06;;;;;;;;;;;8.50;99.90;;;;;;5056678;28;19916;-84
2022/10/19 05:17:32;;;;;;;;;;;8.50;99.90;;;;;;5056874;28;20277;-84
2022/10/19 05:19:57;;;;;;;;;;;8.40;99.90;;;;;;5056814;28;19954;-84
2022/10/19 05:22:23;;;;;;;;;;;8.40;99.90;;;;;;5074781;28;20316;-84
2022/10/19 05:24:48;;;;;;;;;;;8.40;99.90;;;;;;5074374;28;19920;-84
2022/10/19 05:27:14;;;;;;;;;;;8.40;99.90;;;;;;5056645;28;20284;-84
2022/10/19 05:29:39;;;;;;;;;;;8.40;99.90;;;;;;5056633;28;19908;-84
2022/10/19 05:32:05;;;;;;;;;;;8.40;99.90;;;;;;5056600;28;19934;-84
2022/10/19 05:34:30;;;;;;;;;;;8.40;99.90;;;;;;5074210;28;19922;-84
2022/10/19 05:36:56;;;;;;;;;;;8.40;99.90;;;;;;5074453;28;20419;-84
2022/10/19 05:39:21;;;;;;;;;;;8.40;99.90;;;;;;5056403;28;19916;-85
2022/10/19 05:41:47;;;;;;;;;;;8.40;99.90;;;;;;5074424;28;19908;-84
2022/10/19 05:44:13;;;;;;;;;;;8.30;99.90;;;;;;5074105;28;19913;-84
2022/10/19 05:46:39;;;;;;;;;;;8.40;99.90;;;;;;5074334;28;19908;-84
2022/10/19 05:49:04;;;;;;;;;;;8.30;99.90;;;;;;5074269;28;19915;-84
2022/10/19 05:51:30;;;;;;;;;;;8.30;99.90;;;;;;5074047;28;19935;-84
2022/10/19 05:53:56;;;;;;;;;;;8.30;99.90;;;;;;5055910;28;20355;-84
2022/10/19 05:56:23;;;;;;;;;;;8.30;99.90;;;;;;5074095;28;19913;-84
2022/10/19 05:58:49;;;;;;;;;;;8.30;99.90;;;;;;5056068;28;20012;-85
2022/10/19 06:01:17;;;;;;;;;;;8.30;99.90;;;;;;5056175;28;20374;-85
2022/10/19 06:03:43;;;;;;;;;;;8.30;99.90;;;;;;5055842;28;19995;-84
2022/10/19 06:06:09;;;;;;;;;;;8.30;99.90;;;;;;5055890;28;20007;-85
2022/10/19 06:08:35;;;;;;;;;;;8.30;99.90;;;;;;5055277;28;20007;-84
2022/10/19 06:11:05;;;;;;;;;;;8.40;99.90;;;;;;5056002;28;19951;-84
2022/10/19 06:13:30;;;;;;;;;;;8.30;99.90;;;;;;5055587;28;19962;-84
2022/10/19 06:15:56;;;;;;;;;;;8.30;99.90;;;;;;5055756;28;19909;-84
2022/10/19 06:18:24;;;;;;;;;;;8.30;99.90;;;;;;5073674;28;19928;-84
2022/10/19 06:20:50;;;;;;;;;;;8.30;99.90;;;;;;5055533;28;19919;-84
2022/10/19 06:23:15;;;;;;;;;;;8.30;99.90;;;;;;5073303;28;20378;-84
2022/10/19 06:25:41;;;;;;;;;;;8.20;99.90;;;;;;5073389;28;20445;-84
2022/10/19 06:28:06;;;;;;;;;;;8.30;99.90;;;;;;5073472;28;19915;-84
2022/10/19 06:30:32;;;;;;;;;;;8.20;99.90;;;;;;5073412;28;19959;-84
2022/10/19 06:32:58;;;;;;;;;;;8.20;99.90;;;;;;5073208;28;20278;-85
2022/10/19 06:35:23;;;;;;;;;;;8.20;99.90;;;;;;5073288;28;19958;-84
2022/10/19 06:37:49;;;;;;;;;;;8.20;99.90;;;;;;5055382;28;19908;-84
2022/10/19 06:40:14;;;;;;;;;;;8.20;99.90;;;;;;5055313;28;20271;-84
2022/10/19 06:42:39;;;;;;;;;;;8.30;99.90;;;;;;5055271;28;19908;-84
2022/10/19 06:45:08;;;;;;;;;;;8.30;99.90;;;;;;5072944;28;19912;-84
2022/10/19 06:47:34;;;;;;;;;;;8.40;99.90;;;;;;5055171;28;20295;-84
2022/10/19 06:50:00;;;;;;;;;;;8.40;99.90;;;;;;5073088;28;20409;-84
2022/10/19 06:52:26;;;;;;;;;;;8.40;99.90;;;;;;5055150;28;19908;-84
2022/10/19 06:54:51;;;;;;;;;;;8.50;99.90;;;;;;5054938;28;19920;-84
2022/10/19 06:57:17;;;;;;;;;;;8.50;99.90;;;;;;5055072;28;20425;-84
2022/10/19 06:59:42;;;;;;;;;;;8.60;99.90;;;;;;5072872;28;19912;-84
2022/10/19 07:02:10;;;;;;;;;;;8.70;99.90;;;;;;5055042;28;20301;-84
2022/10/19 07:04:35;;;;;;;;;;;8.70;99.90;;;;;;5072515;28;20401;-84
2022/10/19 07:07:01;;;;;;;;;;;8.80;99.90;;;;;;5072913;28;19913;-84
2022/10/19 07:09:26;;;;;;;;;;;8.90;99.90;;;;;;5072776;28;19947;-84
2022/10/19 07:11:52;;;;;;;;;;;9.00;99.90;;;;;;5054892;28;20548;-84
2022/10/19 07:14:17;;;;;;;;;;;9.10;99.90;;;;;;5072604;28;20401;-84
2022/10/19 07:16:42;;;;;;;;;;;9.30;99.90;;;;;;5054862;28;20023;-85
2022/10/19 07:19:08;;;;;;;;;;;9.40;99.90;;;;;;5072612;28;19924;-84
2022/10/19 07:21:39;;;;;;;;;;;9.60;99.90;;;;;;5054601;28;19954;-84
2022/10/19 07:24:05;;;;;;;;;;;9.80;99.90;;;;;;5054334;28;19909;-84
2022/10/19 07:26:32;;;;;;;;;;;9.90;99.90;;;;;;5072607;28;19930;-84
2022/10/19 07:28:58;;;;;;;;;;;10.00;99.90;;;;;;5054599;28;19909;-84
2022/10/19 07:31:24;;;;;;;;;;;10.20;99.90;;;;;;5054531;28;19909;-85
2022/10/19 07:33:53;;;;;;;;;;;10.40;99.90;;;;;;5054175;28;19915;-85
2022/10/19 07:36:19;;;;;;;;;;;10.50;99.90;;;;;;5054650;28;19908;-84
2022/10/19 07:38:44;;;;;;;;;;;10.70;99.90;;;;;;5054454;28;19909;-85
2022/10/19 07:41:14;;;;;;;;;;;10.90;99.90;;;;;;5054375;28;19999;-85
2022/10/19 07:43:40;;;;;;;;;;;11.00;99.90;;;;;;5072253;28;19909;-85
2022/10/19 07:46:07;;;;;;;;;;;11.10;99.90;;;;;;5054406;28;20366;-85
2022/10/19 07:48:33;;;;;;;;;;;11.30;99.90;;;;;;5085325;28;19997;-84
2022/10/19 07:51:00;;;;;;;;;;;11.40;99.90;;;;;;5056131;28;19966;-85
2022/10/19 07:53:25;;;;;;;;;;;11.60;99.90;;;;;;5067581;28;19908;-86
2022/10/19 07:55:51;;;;;;;;;;;11.70;99.90;;;;;;5091049;28;20003;-85
2022/10/19 07:58:16;;;;;;;;;;;11.80;99.90;;;;;;5074088;28;19923;-85
2022/10/19 08:00:42;;;;;;;;;;;11.90;99.90;;;;;;5089947;28;19920;-86
2022/10/19 08:03:07;;;;;;;;;;;12.00;99.90;;;;;;5053887;28;20366;-86
2022/10/19 08:05:33;;;;;;;;;;;12.00;99.90;;;;;;5053685;28;19913;-85
2022/10/19 08:07:58;;;;;;;;;;;12.00;99.90;;;;;;5053813;28;19912;-87
2022/10/19 08:10:24;;;;;;;;;;;12.10;99.90;;;;;;5053803;28;20710;-86
2022/10/19 08:12:49;;;;;;;;;;;12.20;99.90;;;;;;5071497;28;20007;-88
2022/10/19 08:15:15;;;;;;;;;;;12.30;99.90;;;;;;5071528;28;19915;-85
2022/10/19 08:17:40;;;;;;;;;;;12.50;99.90;;;;;;5071769;28;19909;-84
2022/10/19 08:20:06;;;;;;;;;;;12.50;99.90;;;;;;5071737;28;20007;-84
2022/10/19 08:22:32;;;;;;;;;;;12.60;99.90;;;;;;5071687;28;19913;-86
2022/10/19 08:24:57;;;;;;;;;;;12.70;99.90;;;;;;5053474;28;19912;-86
2022/10/19 08:27:23;;;;;;;;;;;12.70;99.90;;;;;;5053719;28;20013;-87
2022/10/19 08:29:50;;;;;;;;;;;12.60;99.90;;;;;;5053768;28;19909;-86
2022/10/19 08:32:16;;;;;;;;;;;12.50;99.90;;;;;;5072641;28;19912;-86
2022/10/19 08:34:41;;;;;;;;;;;12.50;99.90;;;;;;5057402;28;19919;-84
2022/10/19 08:37:07;;;;;;;;;;;12.50;99.90;;;;;;5075421;28;19916;-83
2022/10/19 08:39:32;;;;;;;;;;;12.50;99.90;;;;;;5075503;28;19923;-83
2022/10/19 08:42:00;;;;;;;;;;;12.50;99.90;;;;;;5075479;28;20284;-84
2022/10/19 08:44:29;;;;;;;;;;;12.60;99.90;;;;;;5074765;28;19988;-84
2022/10/19 08:46:57;;;;;;;;;;;12.50;99.90;;;;;;5057197;28;19909;-85
2022/10/19 08:49:24;;;;;;;;;;;12.50;99.90;;;;;;5057200;28;19954;-84
2022/10/19 08:52:08;;;;;;;;;;;12.60;99.90;;;;;;5074978;28;19909;-84
2022/10/19 08:54:42;;;;;;;;;;;12.60;99.90;;;;;;5056851;28;19940;-84
2022/10/19 08:57:23;;;;;;;;;;;12.70;99.90;;;;;;5057055;28;19908;-84
2022/10/19 09:00:01;;;;;;;;;;;12.80;99.90;;;;;;5075076;28;19913;-84
2022/10/19 09:02:26;;;;;;;;;;;12.90;99.90;;;;;;5075027;28;19912;-85
2022/10/19 09:04:59;;;;;;;;;;;12.90;99.90;;;;;;5056510;28;20065;-85
2022/10/19 09:07:26;;;;;;;;;;;13.00;99.90;;;;;;5074722;28;19958;-87
2022/10/19 09:10:15;;;;;;;;;;;13.10;99.90;;;;;;5056790;28;19995;-85
2022/10/19 09:12:41;;;;;;;;;;;13.10;99.90;;;;;;5056833;28;19908;-87
2022/10/19 09:15:10;;;;;;;;;;;13.30;99.90;;;;;;5056422;28;20007;-85
2022/10/19 09:17:36;;;;;;;;;;;13.40;99.90;;;;;;5056666;28;19909;-87
2022/10/19 09:20:28;;;;;;;;;;;13.40;99.90;;;;;;5056727;28;20400;-86
2022/10/19 09:23:00;;;;;;;;;;;13.50;99.90;;;;;;5052992;28;20259;-85
2022/10/19 09:25:28;;;;;;;;;;;13.50;99.90;;;;;;5056430;28;19912;-87
2022/10/19 09:28:00;;;;;;;;;;;13.60;99.90;;;;;;5056656;28;19946;-87
2022/10/19 09:30:27;;;;;;;;;;;13.70;99.90;;;;;;5076102;28;19913;-84
2022/10/19 09:32:58;;;;;;;;;;;13.80;99.90;;;;;;5068103;28;19927;-88
2022/10/19 09:35:27;;;;;;;;;;;13.80;99.90;;;;;;5076661;28;20258;-85
2022/10/19 09:37:53;;;;;;;;;;;13.90;99.90;;;;;;5094616;28;19908;-87
2022/10/19 09:40:20;;;;;;;;;;;14.00;99.90;;;;;;5094313;28;19908;-86
2022/10/19 09:42:46;;;;;;;;;;;14.00;99.90;;;;;;5076393;28;19915;-88
2022/10/19 09:45:15;;;;;;;;;;;14.10;99.90;;;;;;5092975;28;19916;-86
2022/10/19 09:47:44;;;;;;;;;;;14.20;99.90;;;;;;5075905;28;19908;-87
2022/10/19 09:50:36;;;;;;;;;;;14.30;99.90;;;;;;5074317;28;19915;-85
2022/10/19 09:53:03;;;;;;;;;;;14.40;99.90;;;;;;5077955;28;19916;-84
2022/10/19 09:55:41;;;;;;;;;;;14.60;99.90;;;;;;5056074;28;20373;-86
2022/10/19 09:58:12;;;;;;;;;;;14.70;99.90;;;;;;5074905;28;19908;-81
2022/10/19 10:00:41;;;;;;;;;;;14.70;99.90;;;;;;5088262;28;20267;-86
2022/10/19 10:03:06;;;;;;;;;;;14.80;99.90;;;;;;5059205;28;20382;-85
2022/10/19 10:05:34;;;;;;;;;;;14.90;99.90;;;;;;5056761;28;19912;-86
2022/10/19 10:07:59;;;;;;;;;;;15.10;99.90;;;;;;5055825;28;19958;-87
2022/10/19 10:10:31;;;;;;;;;;;15.20;99.90;;;;;;5065152;28;19912;-86
2022/10/19 10:12:58;;;;;;;;;;;15.30;99.90;;;;;;5074462;28;19931;-85
2022/10/19 10:15:25;;;;;;;;;;;15.50;99.90;;;;;;5091766;28;19913;-86
2022/10/19 10:17:51;;;;;;;;;;;15.70;99.90;;;;;;5069769;28;19958;-86
2022/10/19 10:20:22;;;;;;;;;;;15.80;99.90;;;;;;5071633;28;20312;-85
2022/10/19 10:22:52;;;;;;;;;;;16.10;99.90;;;;;;5072559;28;19916;-86
2022/10/19 10:25:18;;;;;;;;;;;16.90;99.90;;;;;;5074528;28;19942;-86
2022/10/19 10:27:53;;;;;;;;;;;18.70;99.90;;;;;;5075699;28;19912;-85
2022/10/19 10:30:18;;;;;;;;;;;20.70;99.90;;;;;;5075550;28;20284;-83
2022/10/19 10:32:47;;;;;;;;;;;22.60;99.90;;;;;;5076162;28;19909;-83
2022/10/19 10:35:17;;;;;;;;;;;24.20;99.90;;;;;;5093288;28;19909;-83
2022/10/19 10:37:46;;;;;;;;;;;25.50;99.90;;;;;;5088154;28;19908;-85
2022/10/19 10:40:26;;;;;;;;;;;27.20;99.10;;;;;;5076133;28;19912;-84
2022/10/19 10:42:53;;;;;;;;;;;28.70;95.20;;;;;;5075774;28;19912;-83
2022/10/19 10:45:24;;;;;;;;;;;29.00;89.80;;;;;;5093059;28;19912;-85
2022/10/19 10:47:50;;;;;;;;;;;29.00;84.20;;;;;;5068905;28;20277;-85
2022/10/19 10:50:20;;;;;;;;;;;29.40;81.50;;;;;;5054597;28;19908;-85
2022/10/19 10:52:59;;;;;;;;;;;29.10;77.40;;;;;;5072779;28;20403;-86
2022/10/19 10:55:25;;;;;;;;;;;29.10;78.20;;;;;;5054444;28;20016;-86
2022/10/19 10:57:52;;;;;;;;;;;29.60;78.20;;;;;;5055267;28;20369;-85
2022/10/19 11:00:19;;;;;;;;;;;30.70;73.70;;;;;;5054749;28;19917;-85
2022/10/19 11:02:53;;;;;;;;;;;31.30;68.30;;;;;;5055258;28;19974;-83
2022/10/19 11:05:27;;;;;;;;;;;31.70;63.60;;;;;;5054383;28;20271;-84
2022/10/19 11:07:55;;;;;;;;;;;31.50;60.70;;;;;;5054305;28;19967;-85
2022/10/19 11:10:29;;;;;;;;;;;30.90;60.30;;;;;;5054247;28;19908;-84
2022/10/19 11:13:00;;;;;;;;;;;30.80;62.10;;;;;;5070542;28;19916;-85
2022/10/19 11:15:50;;;;;;;;;;;30.40;60.80;;;;;;5074557;28;20362;-83
2022/10/19 11:18:26;;;;;;;;;;;29.60;60.10;;;;;;5027146;28;19908;-83
2022/10/19 11:21:04;;;;;;;;;;;28.70;62.40;;;;;;5054254;28;19913;-84
2022/10/19 11:23:32;;;;;;;;;;;28.40;65.10;;;;;;5072349;28;19909;-84
2022/10/19 11:26:24;;;;;;;;;;;28.20;64.70;;;;;;5054119;28;19956;-83
2022/10/19 11:28:59;;;;;;;;;;;27.90;65.20;;;;;;5054469;28;19991;-83
2022/10/19 11:31:34;;;;;;;;;;;27.80;65.00;;;;;;5072482;28;20410;-83
2022/10/19 11:34:09;;;;;;;;;;;28.80;64.30;;;;;;5072454;28;19908;-84
2022/10/19 11:36:44;;;;;;;;;;;29.70;63.30;;;;;;5066719;28;19962;-84
2022/10/19 11:39:16;;;;;;;;;;;29.90;61.70;;;;;;5072576;28;19999;-84
2022/10/19 11:41:50;;;;;;;;;;;30.50;59.20;;;;;;5073378;28;19913;-83
2022/10/19 11:44:22;;;;;;;;;;;29.60;59.40;;;;;;5072705;28;19948;-83
2022/10/19 11:46:57;;;;;;;;;;;29.00;59.60;;;;;;5071941;28;20012;-84
2022/10/19 11:49:25;;;;;;;;;;;28.60;60.40;;;;;;5054090;28;19935;-83
2022/10/19 11:51:56;;;;;;;;;;;29.00;61.20;;;;;;5071882;28;19912;-83
2022/10/19 11:54:24;;;;;;;;;;;29.60;61.50;;;;;;5071841;28;19955;-83
2022/10/19 11:56:56;;;;;;;;;;;29.20;59.50;;;;;;5070510;28;19944;-86
2022/10/19 11:59:41;;;;;;;;;;;28.10;60.20;;;;;;5071975;28;19916;-86
2022/10/19 12:02:16;;;;;;;;;;;27.50;62.50;;;;;;5054076;28;20324;-84
2022/10/19 12:04:51;;;;;;;;;;;27.60;62.30;;;;;;5070831;28;20003;-84
2022/10/19 12:07:19;;;;;;;;;;;28.60;62.50;;;;;;5054921;28;19952;-84
2022/10/19 12:09:48;;;;;;;;;;;29.10;60.30;;;;;;5074714;28;19909;-84
2022/10/19 12:12:25;;;;;;;;;;;29.00;62.10;;;;;;5074603;28;19908;-84
2022/10/19 12:14:53;;;;;;;;;;;28.00;59.70;;;;;;5057605;28;19920;-83
2022/10/19 12:17:32;;;;;;;;;;;26.80;61.60;;;;;;5075714;28;19908;-83
2022/10/19 12:20:00;;;;;;;;;;;25.90;63.60;;;;;;5057598;28;20340;-84
2022/10/19 12:22:28;;;;;;;;;;;26.20;67.40;;;;;;5075618;28;19912;-84
2022/10/19 12:24:57;;;;;;;;;;;27.20;64.90;;;;;;5057408;28;20373;-83
2022/10/19 12:27:32;;;;;;;;;;;28.20;62.20;;;;;;5077976;28;19908;-83
2022/10/19 12:30:02;;;;;;;;;;;28.20;59.60;;;;;;5058080;28;20369;-85
2022/10/19 12:32:48;;;;;;;;;;;27.70;59.60;;;;;;5057947;28;19916;-85
2022/10/19 12:35:37;;;;;;;;;;;26.70;60.90;;;;;;5057987;28;19935;-84
2022/10/19 12:38:05;;;;;;;;;;;26.00;63.60;;;;;;5046567;28;19909;-83
2022/10/19 12:40:33;;;;;;;;;;;25.70;63.10;;;;;;5096340;22;19954;-82
2022/10/19 12:43:03;;;;;;;;;;;25.40;65.20;;;;;;5054019;28;19909;-84
2022/10/19 12:45:33;;;;;;;;;;;25.00;66.30;;;;;;5055519;28;19917;-82
2022/10/19 12:48:07;;;;;;;;;;;25.20;70.80;;;;;;5037664;28;19909;-82
2022/10/19 12:50:48;;;;;;;;;;;25.20;68.70;;;;;;5054707;28;19909;-82
2022/10/19 12:53:24;;;;;;;;;;;25.30;68.50;;;;;;5055684;28;19947;-82
2022/10/19 12:56:08;;;;;;;;;;;25.20;67.30;;;;;;5055216;28;20532;-83
2022/10/19 12:58:36;;;;;;;;;;;25.00;68.00;;;;;;5045295;28;19940;-82
2022/10/19 13:01:03;;;;;;;;;;;24.70;68.50;;;;;;5034531;28;19909;-82
2022/10/19 13:03:31;;;;;;;;;;;24.30;70.60;;;;;;5017344;28;19952;-81
2022/10/19 13:05:58;;;;;;;;;;;24.20;73.80;;;;;;5017846;28;19913;-82
2022/10/19 13:08:29;;;;;;;;;;;24.40;73.30;;;;;;5017452;28;19920;-80
2022/10/19 13:11:06;;;;;;;;;;;24.60;72.60;;;;;;5035217;28;19916;-80
2022/10/19 13:13:50;;;;;;;;;;;24.60;73.40;;;;;;5033792;28;20393;-80
2022/10/19 13:16:28;;;;;;;;;;;24.20;75.40;;;;;;5035154;28;20387;-80
2022/10/19 13:19:02;;;;;;;;;;;23.70;78.20;;;;;;5033718;28;19909;-80
2022/10/19 13:21:46;;;;;;;;;;;23.30;76.40;;;;;;5033851;28;19909;-83
2022/10/19 13:24:19;;;;;;;;;;;23.00;79.40;;;;;;5034611;28;19909;-82
2022/10/19 13:26:45;;;;;;;;;;;22.80;82.00;;;;;;5017158;28;19909;-80
2022/10/19 13:29:23;;;;;;;;;;;22.70;82.70;;;;;;5017260;28;20008;-82
2022/10/19 13:31:48;;;;;;;;;;;22.50;84.10;;;;;;5017145;28;19909;-84
2022/10/19 13:34:14;;;;;;;;;;;22.30;88.00;;;;;;5016979;28;19916;-82
2022/10/19 13:36:57;;;;;;;;;;;22.10;90.00;;;;;;5033899;28;19909;-84
2022/10/19 13:39:25;;;;;;;;;;;22.10;91.60;;;;;;5016803;28;19909;-84
2022/10/19 13:41:51;;;;;;;;;;;22.00;92.60;;;;;;5016888;28;20002;-82
2022/10/19 13:44:23;;;;;;;;;;;21.80;93.00;;;;;;5033236;28;19909;-82
2022/10/19 13:47:01;;;;;;;;;;;21.70;94.50;;;;;;5017157;28;20271;-83
2022/10/19 13:49:33;;;;;;;;;;;21.60;95.40;;;;;;5034363;28;19956;-83
2022/10/19 13:52:08;;;;;;;;;;;21.60;96.70;;;;;;5016651;28;19964;-83
2022/10/19 13:54:53;;;;;;;;;;;21.60;96.90;;;;;;5032879;28;19909;-82
2022/10/19 13:57:28;;;;;;;;;;;21.60;98.40;;;;;;5033429;28;20366;-82
2022/10/19 14:00:09;;;;;;;;;;;21.60;98.40;;;;;;5033129;28;19924;-82
2022/10/19 14:02:45;;;;;;;;;;;21.60;99.90;;;;;;5016869;28;19916;-82
2022/10/19 14:05:10;;;;;;;;;;;21.70;99.90;;;;;;5033967;28;20051;-85
2022/10/19 14:07:41;;;;;;;;;;;21.80;99.90;;;;;;5033089;28;19944;-83
2022/10/19 14:10:13;;;;;;;;;;;21.90;99.90;;;;;;5016289;28;19995;-84
2022/10/19 14:12:40;;;;;;;;;;;21.80;99.90;;;;;;5034096;28;19959;-82
2022/10/19 14:15:21;;;;;;;;;;;21.90;99.90;;;;;;5033936;28;19949;-83
2022/10/19 14:17:46;;;;;;;;;;;21.90;99.90;;;;;;5032913;28;19909;-84
2022/10/19 14:20:24;;;;;;;;;;;22.00;99.90;;;;;;5016567;28;20004;-81
2022/10/19 14:22:49;;;;;;;;;;;22.00;99.90;;;;;;5032481;28;20367;-82
2022/10/19 14:25:16;;;;;;;;;;;21.90;99.90;;;;;;5033817;28;19919;-84
2022/10/19 14:27:42;;;;;;;;;;;21.90;99.90;;;;;;5016072;28;19909;-83
2022/10/19 14:30:24;;;;;;;;;;;21.70;99.90;;;;;;5015580;28;20420;-81